Time,TemperatureF,DewpointF,PressureIn,WindDirection,WindDirectionDegrees,WindSpeedMPH,WindSpeedGustMPH,Humidity,HourlyPrecipIn,Conditions,Clouds,dailyrainin,SolarRadiationWatts/m^2,SoftwareType,DateUTC
2013-04-20 00:01:00,53.0,2.0,-100.00,North,2,2.0,5.0,12,0.00,,,0.00,1.000000,,2013-04-20 07:01:00,
2013-04-20 00:32:00,49.0,2.0,-100.00,ESE,123,3.0,5.0,14,0.00,,,-99.99,1.000000,,2013-04-20 07:32:00,
2013-04-20 00:42:00,49.0,2.0,-100.00,ESE,123,3.0,5.0,14,0.00,,,-99.99,1.000000,,2013-04-20 07:42:00,
2013-04-20 00:52:00,49.0,2.0,-100.00,ESE,123,3.0,5.0,14,0.00,,,-99.99,1.000000,,2013-04-20 07:52:00,
2013-04-20 01:01:00,49.0,2.0,-100.00,ESE,123,3.0,5.0,14,0.00,,,-99.99,1.000000,,2013-04-20 08:01:00,
2013-04-20 01:32:00,49.0,3.0,-100.00,North,8,1.0,5.0,15,0.00,,,0.00,1.000000,,2013-04-20 08:32:00,
2013-04-20 01:42:00,49.0,3.0,-100.00,North,8,1.0,5.0,15,0.00,,,0.00,1.000000,,2013-04-20 08:42:00,
2013-04-20 01:52:00,49.0,3.0,-100.00,North,8,1.0,5.0,15,0.00,,,0.00,1.000000,,2013-04-20 08:52:00,
2013-04-20 02:01:00,49.0,3.0,-100.00,North,8,1.0,5.0,15,0.00,,,0.00,1.000000,,2013-04-20 09:01:00,
2013-04-20 02:33:00,53.0,5.0,-100.00,NNE,31,4.0,6.0,14,0.00,,,0.00,1.000000,,2013-04-20 09:33:00,
2013-04-20 02:43:00,53.0,5.0,-100.00,NNE,31,4.0,6.0,14,0.00,,,0.00,1.000000,,2013-04-20 09:43:00,
2013-04-20 02:53:00,53.0,5.0,-100.00,NNE,31,4.0,6.0,14,0.00,,,0.00,1.000000,,2013-04-20 09:53:00,
2013-04-20 03:02:00,53.0,5.0,-100.00,NNE,31,4.0,6.0,14,0.00,,,0.00,1.000000,,2013-04-20 10:02:00,
2013-04-20 03:33:00,53.0,4.0,-100.00,NNE,32,4.0,7.0,13,0.00,,,0.00,1.000000,,2013-04-20 10:33:00,
2013-04-20 03:42:00,53.0,4.0,-100.00,NNE,32,4.0,7.0,13,0.00,,,0.00,1.000000,,2013-04-20 10:42:00,
2013-04-20 03:53:00,53.0,4.0,-100.00,NNE,32,4.0,7.0,13,0.00,,,0.00,1.000000,,2013-04-20 10:53:00,
2013-04-20 04:02:00,53.0,4.0,-100.00,NNE,32,4.0,7.0,13,0.00,,,0.00,1.000000,,2013-04-20 11:02:00,
2013-04-20 04:32:00,50.0,4.0,-100.00,SE,144,1.0,7.0,15,0.00,,,0.00,1.000000,,2013-04-20 11:32:00,
2013-04-20 04:42:00,50.0,4.0,-100.00,SE,144,1.0,7.0,15,0.00,,,0.00,1.000000,,2013-04-20 11:42:00,
2013-04-20 04:52:00,50.0,4.0,-100.00,SE,144,1.0,7.0,15,0.00,,,0.00,1.000000,,2013-04-20 11:52:00,
2013-04-20 05:02:00,50.0,4.0,-100.00,SE,144,1.0,7.0,15,0.00,,,0.00,1.000000,,2013-04-20 12:02:00,
2013-04-20 05:32:00,47.0,6.0,-100.00,NW,319,2.0,5.0,18,0.00,,,0.00,1.000000,,2013-04-20 12:32:00,
2013-04-20 05:42:00,47.0,6.0,-100.00,NW,319,2.0,5.0,18,0.00,,,0.00,1.000000,,2013-04-20 12:42:00,
2013-04-20 05:52:00,47.0,6.0,-100.00,NW,319,2.0,5.0,18,0.00,,,0.00,1.000000,,2013-04-20 12:52:00,
2013-04-20 06:02:00,47.0,6.0,-100.00,NW,319,2.0,5.0,18,0.00,,,0.00,1.000000,,2013-04-20 13:02:00,
2013-04-20 06:32:00,46.0,7.0,-100.00,North,10,5.0,7.0,20,0.00,,,0.00,4.000000,,2013-04-20 13:32:00,
2013-04-20 06:42:00,46.0,7.0,-100.00,North,10,5.0,7.0,20,0.00,,,0.00,4.000000,,2013-04-20 13:42:00,
2013-04-20 06:52:00,46.0,7.0,-100.00,North,10,5.0,7.0,20,0.00,,,0.00,4.000000,,2013-04-20 13:52:00,
2013-04-20 07:02:00,46.0,7.0,-100.00,North,10,5.0,7.0,20,0.00,,,0.00,4.000000,,2013-04-20 14:02:00,
2013-04-20 07:32:00,59.0,6.0,-100.00,SE,128,2.0,7.0,12,0.00,,,0.00,121.000000,,2013-04-20 14:32:00,
2013-04-20 08:34:00,68.0,7.0,-100.00,WSW,237,2.0,5.0,9,0.00,,,0.00,339.000000,,2013-04-20 15:34:00,
2013-04-20 08:43:00,68.0,7.0,-100.00,WSW,237,2.0,5.0,9,0.00,,,0.00,339.000000,,2013-04-20 15:43:00,
2013-04-20 08:53:00,68.0,7.0,-100.00,WSW,237,2.0,5.0,9,0.00,,,0.00,339.000000,,2013-04-20 15:53:00,
2013-04-20 09:03:00,68.0,7.0,-100.00,WSW,237,2.0,5.0,9,0.00,,,0.00,339.000000,,2013-04-20 16:03:00,
2013-04-20 09:33:00,71.0,4.0,-100.00,West,264,4.0,6.0,7,0.00,,,0.00,551.000000,,2013-04-20 16:33:00,
2013-04-20 09:42:00,71.0,4.0,-100.00,West,264,4.0,6.0,7,0.00,,,0.00,551.000000,,2013-04-20 16:42:00,
2013-04-20 09:53:00,71.0,4.0,-100.00,West,264,4.0,6.0,7,0.00,,,0.00,551.000000,,2013-04-20 16:53:00,
2013-04-20 10:02:00,71.0,4.0,-100.00,West,264,4.0,6.0,7,0.00,,,0.00,551.000000,,2013-04-20 17:02:00,
2013-04-20 10:33:00,75.0,3.0,-100.00,West,275,4.0,8.0,6,0.00,,,0.00,739.000000,,2013-04-20 17:33:00,
2013-04-20 10:42:00,75.0,3.0,-100.00,West,275,4.0,8.0,6,0.00,,,0.00,739.000000,,2013-04-20 17:42:00,
2013-04-20 10:52:00,75.0,3.0,-100.00,West,275,4.0,8.0,6,0.00,,,0.00,739.000000,,2013-04-20 17:52:00,
2013-04-20 11:02:00,75.0,3.0,-100.00,West,275,4.0,8.0,6,0.00,,,0.00,739.000000,,2013-04-20 18:02:00,
2013-04-20 11:32:00,79.0,2.0,-100.00,WSW,248,4.0,8.0,5,0.00,,,0.00,881.000000,,2013-04-20 18:32:00,
2013-04-20 11:42:00,79.0,2.0,-100.00,WSW,248,4.0,8.0,5,0.00,,,0.00,881.000000,,2013-04-20 18:42:00,
2013-04-20 11:52:00,79.0,2.0,-100.00,WSW,248,4.0,8.0,5,0.00,,,0.00,881.000000,,2013-04-20 18:52:00,
2013-04-20 12:01:00,79.0,2.0,-100.00,WSW,248,4.0,8.0,5,0.00,,,0.00,881.000000,,2013-04-20 19:01:00,
2013-04-20 12:32:00,80.0,3.0,-100.00,WSW,249,5.0,11.0,5,0.00,,,0.00,970.000000,,2013-04-20 19:32:00,
2013-04-20 12:42:00,80.0,3.0,-100.00,WSW,249,5.0,11.0,5,0.00,,,0.00,970.000000,,2013-04-20 19:42:00,
2013-04-20 12:52:00,80.0,3.0,-100.00,WSW,249,5.0,11.0,5,0.00,,,0.00,970.000000,,2013-04-20 19:52:00,
2013-04-20 13:02:00,80.0,3.0,-100.00,WSW,249,5.0,11.0,5,0.00,,,0.00,970.000000,,2013-04-20 20:02:00,
2013-04-20 13:32:00,83.0,9.0,-100.00,WNW,302,6.0,14.0,6,0.00,,,0.00,989.000000,,2013-04-20 20:32:00,
2013-04-20 13:42:00,83.0,9.0,-100.00,WNW,302,6.0,14.0,6,0.00,,,0.00,989.000000,,2013-04-20 20:42:00,
2013-04-20 13:52:00,83.0,9.0,-100.00,WNW,302,6.0,14.0,6,0.00,,,0.00,989.000000,,2013-04-20 20:52:00,
2013-04-20 14:01:00,83.0,9.0,-100.00,WNW,302,6.0,14.0,6,0.00,,,0.00,989.000000,,2013-04-20 21:01:00,
2013-04-20 14:33:00,85.0,11.0,-100.00,West,270,11.0,21.0,6,0.00,,,-99.99,946.000000,,2013-04-20 21:33:00,
2013-04-20 14:43:00,85.0,11.0,-100.00,West,270,11.0,21.0,6,0.00,,,-99.99,946.000000,,2013-04-20 21:43:00,
2013-04-20 14:53:00,85.0,11.0,-100.00,West,270,11.0,21.0,6,0.00,,,-99.99,946.000000,,2013-04-20 21:53:00,
2013-04-20 15:02:00,85.0,11.0,-100.00,West,270,11.0,21.0,6,0.00,,,-99.99,946.000000,,2013-04-20 22:02:00,
2013-04-20 15:33:00,84.0,10.0,-100.00,West,279,9.0,25.0,6,0.00,,,0.00,833.000000,,2013-04-20 22:33:00,
2013-04-20 15:42:00,84.0,10.0,-100.00,West,279,9.0,25.0,6,0.00,,,0.00,833.000000,,2013-04-20 22:42:00,
2013-04-20 15:52:00,84.0,10.0,-100.00,West,279,9.0,25.0,6,0.00,,,0.00,833.000000,,2013-04-20 22:52:00,
2013-04-20 16:02:00,84.0,10.0,-100.00,West,279,9.0,25.0,6,0.00,,,0.00,833.000000,,2013-04-20 23:02:00,
2013-04-20 16:32:00,84.0,10.0,-100.00,WNW,291,12.0,21.0,6,0.00,,,0.00,676.000000,,2013-04-20 23:32:00,
2013-04-20 16:42:00,84.0,10.0,-100.00,WNW,291,12.0,21.0,6,0.00,,,0.00,676.000000,,2013-04-20 23:42:00,
2013-04-20 16:52:00,84.0,10.0,-100.00,WNW,291,12.0,21.0,6,0.00,,,0.00,676.000000,,2013-04-20 23:52:00,
2013-04-20 17:01:00,84.0,10.0,-100.00,WNW,291,12.0,21.0,6,0.00,,,0.00,676.000000,,2013-04-21 00:01:00,
2013-04-20 18:32:00,81.0,11.0,-100.00,WNW,289,10.0,19.0,7,-99.99,,,0.00,251.000000,,2013-04-21 01:32:00,
2013-04-20 18:42:00,81.0,11.0,-100.00,WNW,289,10.0,19.0,7,-99.99,,,0.00,251.000000,,2013-04-21 01:42:00,
2013-04-20 18:52:00,81.0,11.0,-100.00,WNW,289,10.0,19.0,7,-99.99,,,0.00,251.000000,,2013-04-21 01:52:00,
2013-04-20 19:01:00,81.0,11.0,-100.00,WNW,289,10.0,19.0,7,-99.99,,,0.00,251.000000,,2013-04-21 02:01:00,
2013-04-20 19:32:00,76.0,13.0,-100.00,NW,307,7.0,17.0,9,0.00,,,0.00,48.000000,,2013-04-21 02:32:00,
2013-04-20 19:42:00,76.0,13.0,-100.00,NW,307,7.0,17.0,9,0.00,,,0.00,48.000000,,2013-04-21 02:42:00,
2013-04-20 19:52:00,76.0,13.0,-100.00,NW,307,7.0,17.0,9,0.00,,,0.00,48.000000,,2013-04-21 02:52:00,
2013-04-20 20:01:00,76.0,13.0,-100.00,NW,307,7.0,17.0,9,0.00,,,0.00,48.000000,,2013-04-21 03:01:00,
2013-04-20 20:33:00,73.0,15.0,-100.00,NNE,13,5.0,11.0,11,0.00,,,0.00,1.000000,,2013-04-21 03:33:00,
2013-04-20 20:42:00,73.0,15.0,-100.00,NNE,13,5.0,11.0,11,0.00,,,0.00,1.000000,,2013-04-21 03:42:00,
2013-04-20 20:52:00,73.0,15.0,-100.00,NNE,13,5.0,11.0,11,0.00,,,0.00,1.000000,,2013-04-21 03:52:00,
2013-04-20 21:02:00,73.0,15.0,-100.00,NNE,13,5.0,11.0,11,0.00,,,0.00,1.000000,,2013-04-21 04:02:00,
2013-04-20 21:33:00,70.0,13.0,-100.00,NE,37,3.0,11.0,11,0.00,,,0.00,1.000000,,2013-04-21 04:33:00,
2013-04-20 21:42:00,70.0,13.0,-100.00,NE,37,3.0,11.0,11,0.00,,,0.00,1.000000,,2013-04-21 04:42:00,
2013-04-20 21:53:00,70.0,13.0,-100.00,NE,37,3.0,11.0,11,0.00,,,0.00,1.000000,,2013-04-21 04:53:00,
2013-04-20 22:02:00,70.0,13.0,-100.00,NE,37,3.0,11.0,11,0.00,,,0.00,1.000000,,2013-04-21 05:02:00,
2013-04-20 22:32:00,66.0,15.0,-100.00,NNE,26,5.0,9.0,14,0.00,,,0.00,1.000000,,2013-04-21 05:32:00,
2013-04-20 22:43:00,66.0,15.0,-100.00,NNE,26,5.0,9.0,14,0.00,,,0.00,1.000000,,2013-04-21 05:43:00,
2013-04-20 22:52:00,66.0,15.0,-100.00,NNE,26,5.0,9.0,14,0.00,,,0.00,1.000000,,2013-04-21 05:52:00,
2013-04-20 23:01:00,66.0,15.0,-100.00,NNE,26,5.0,9.0,14,0.00,,,0.00,1.000000,,2013-04-21 06:01:00,
2013-04-20 23:32:00,69.0,14.0,-100.00,NE,34,6.0,11.0,12,0.00,,,0.00,1.000000,,2013-04-21 06:32:00,